sensor_id;sensor_type;location;lat;lon;timestamp;P1;durP1;ratioP1;P2;durP2;ratioP2
39102;SDS011;24847;48.218;16.414;2022-12-20T00:00:20;41.28;;;21.13;;
39102;SDS011;24847;48.218;16.414;2022-12-20T00:05:23;37.40;;;20.48;;
39102;SDS011;24847;48.218;16.414;2022-12-20T00:10:25;39.80;;;20.67;;
39102;SDS011;24847;48.218;16.414;2022-12-20T00:15:29;41.30;;;21.50;;
39102;SDS011;24847;48.218;16.414;2022-12-20T00:20:31;35.35;;;18.45;;
39102;SDS011;24847;48.218;16.414;2022-12-20T00:25:34;43.50;;;22.58;;
39102;SDS011;24847;48.218;16.414;2022-12-20T00:30:38;40.78;;;20.42;;
39102;SDS011;24847;48.218;16.414;2022-12-20T00:35:40;38.58;;;20.13;;
39102;SDS011;24847;48.218;16.414;2022-12-20T00:40:43;41.20;;;21.70;;
39102;SDS011;24847;48.218;16.414;2022-12-20T00:45:46;40.60;;;19.95;;
39102;SDS011;24847;48.218;16.414;2022-12-20T00:50:49;37.13;;;19.85;;
39102;SDS011;24847;48.218;16.414;2022-12-20T00:55:52;40.35;;;20.08;;
39102;SDS011;24847;48.218;16.414;2022-12-20T01:00:56;39.10;;;19.92;;
39102;SDS011;24847;48.218;16.414;2022-12-20T01:05:58;40.22;;;21.27;;
39102;SDS011;24847;48.218;16.414;2022-12-20T01:11:02;40.10;;;20.05;;
39102;SDS011;24847;48.218;16.414;2022-12-20T01:16:10;41.83;;;21.42;;
39102;SDS011;24847;48.218;16.414;2022-12-20T01:21:15;38.58;;;19.88;;
39102;SDS011;24847;48.218;16.414;2022-12-20T01:26:21;38.00;;;17.48;;
39102;SDS011;24847;48.218;16.414;2022-12-20T01:31:27;37.53;;;17.63;;
39102;SDS011;24847;48.218;16.414;2022-12-20T01:36:31;39.58;;;19.02;;
39102;SDS011;24847;48.218;16.414;2022-12-20T01:41:36;41.30;;;19.92;;
39102;SDS011;24847;48.218;16.414;2022-12-20T01:46:40;40.38;;;18.40;;
39102;SDS011;24847;48.218;16.414;2022-12-20T01:51:43;37.80;;;18.45;;
39102;SDS011;24847;48.218;16.414;2022-12-20T01:56:50;38.25;;;19.58;;
39102;SDS011;24847;48.218;16.414;2022-12-20T02:01:59;44.25;;;20.83;;
39102;SDS011;24847;48.218;16.414;2022-12-20T02:07:04;38.80;;;20.25;;
39102;SDS011;24847;48.218;16.414;2022-12-20T02:12:08;39.42;;;19.95;;
39102;SDS011;24847;48.218;16.414;2022-12-20T02:17:16;35.92;;;18.38;;
39102;SDS011;24847;48.218;16.414;2022-12-20T02:22:30;37.35;;;18.17;;
39102;SDS011;24847;48.218;16.414;2022-12-20T02:27:53;37.15;;;18.10;;
39102;SDS011;24847;48.218;16.414;2022-12-20T02:33:06;38.22;;;19.25;;
39102;SDS011;24847;48.218;16.414;2022-12-20T02:43:30;38.20;;;19.08;;
39102;SDS011;24847;48.218;16.414;2022-12-20T02:48:58;40.63;;;20.08;;
39102;SDS011;24847;48.218;16.414;2022-12-20T02:54:05;38.63;;;19.35;;
39102;SDS011;24847;48.218;16.414;2022-12-20T02:59:09;32.80;;;16.08;;
39102;SDS011;24847;48.218;16.414;2022-12-20T03:04:17;33.25;;;17.15;;
39102;SDS011;24847;48.218;16.414;2022-12-20T03:09:24;37.42;;;19.08;;
39102;SDS011;24847;48.218;16.414;2022-12-20T03:14:26;37.00;;;18.05;;
39102;SDS011;24847;48.218;16.414;2022-12-20T03:19:30;42.55;;;21.02;;
39102;SDS011;24847;48.218;16.414;2022-12-20T03:24:32;38.75;;;18.38;;
39102;SDS011;24847;48.218;16.414;2022-12-20T03:29:34;34.40;;;17.55;;
39102;SDS011;24847;48.218;16.414;2022-12-20T03:34:38;30.10;;;15.30;;
39102;SDS011;24847;48.218;16.414;2022-12-20T03:39:40;32.47;;;16.15;;
39102;SDS011;24847;48.218;16.414;2022-12-20T03:44:43;33.90;;;16.60;;
39102;SDS011;24847;48.218;16.414;2022-12-20T03:49:46;32.22;;;16.38;;
39102;SDS011;24847;48.218;16.414;2022-12-20T03:54:49;36.72;;;17.92;;
39102;SDS011;24847;48.218;16.414;2022-12-20T03:59:51;36.88;;;18.05;;
39102;SDS011;24847;48.218;16.414;2022-12-20T04:04:55;33.53;;;16.55;;
39102;SDS011;24847;48.218;16.414;2022-12-20T04:09:58;36.45;;;17.35;;
39102;SDS011;24847;48.218;16.414;2022-12-20T04:15:00;33.92;;;16.63;;
39102;SDS011;24847;48.218;16.414;2022-12-20T04:20:05;40.72;;;18.63;;
39102;SDS011;24847;48.218;16.414;2022-12-20T04:25:21;43.95;;;20.80;;
39102;SDS011;24847;48.218;16.414;2022-12-20T04:30:23;35.08;;;17.45;;
39102;SDS011;24847;48.218;16.414;2022-12-20T04:35:29;33.08;;;16.02;;
39102;SDS011;24847;48.218;16.414;2022-12-20T04:40:32;36.90;;;17.73;;
39102;SDS011;24847;48.218;16.414;2022-12-20T04:50:56;33.55;;;17.60;;
39102;SDS011;24847;48.218;16.414;2022-12-20T04:55:59;34.65;;;16.90;;
39102;SDS011;24847;48.218;16.414;2022-12-20T05:01:01;34.25;;;17.02;;
39102;SDS011;24847;48.218;16.414;2022-12-20T05:06:05;38.00;;;17.90;;
39102;SDS011;24847;48.218;16.414;2022-12-20T05:11:08;37.35;;;17.88;;
39102;SDS011;24847;48.218;16.414;2022-12-20T05:16:11;38.20;;;18.83;;
39102;SDS011;24847;48.218;16.414;2022-12-20T05:21:14;42.13;;;19.98;;
39102;SDS011;24847;48.218;16.414;2022-12-20T05:26:35;38.00;;;18.60;;
39102;SDS011;24847;48.218;16.414;2022-12-20T05:31:38;36.90;;;18.48;;
39102;SDS011;24847;48.218;16.414;2022-12-20T05:36:42;36.75;;;16.65;;
39102;SDS011;24847;48.218;16.414;2022-12-20T05:41:44;40.38;;;18.95;;
39102;SDS011;24847;48.218;16.414;2022-12-20T05:46:46;33.83;;;16.52;;
39102;SDS011;24847;48.218;16.414;2022-12-20T05:51:50;37.47;;;18.00;;
39102;SDS011;24847;48.218;16.414;2022-12-20T05:56:52;32.80;;;17.00;;
39102;SDS011;24847;48.218;16.414;2022-12-20T06:01:54;34.08;;;16.52;;
39102;SDS011;24847;48.218;16.414;2022-12-20T06:06:58;42.83;;;18.75;;
39102;SDS011;24847;48.218;16.414;2022-12-20T06:12:00;38.28;;;18.33;;
39102;SDS011;24847;48.218;16.414;2022-12-20T06:17:03;37.30;;;17.60;;
39102;SDS011;24847;48.218;16.414;2022-12-20T06:22:07;42.53;;;19.35;;
39102;SDS011;24847;48.218;16.414;2022-12-20T06:27:10;37.97;;;18.15;;
39102;SDS011;24847;48.218;16.414;2022-12-20T06:32:12;35.47;;;16.63;;
39102;SDS011;24847;48.218;16.414;2022-12-20T06:37:16;36.80;;;17.70;;
39102;SDS011;24847;48.218;16.414;2022-12-20T06:42:19;41.97;;;19.15;;
39102;SDS011;24847;48.218;16.414;2022-12-20T06:47:21;39.35;;;19.00;;
39102;SDS011;24847;48.218;16.414;2022-12-20T06:52:24;42.45;;;19.08;;
39102;SDS011;24847;48.218;16.414;2022-12-20T06:57:26;39.15;;;18.10;;
39102;SDS011;24847;48.218;16.414;2022-12-20T07:02:29;32.97;;;16.33;;
39102;SDS011;24847;48.218;16.414;2022-12-20T07:07:32;42.40;;;18.25;;
39102;SDS011;24847;48.218;16.414;2022-12-20T07:12:35;38.80;;;18.25;;
39102;SDS011;24847;48.218;16.414;2022-12-20T07:17:37;43.40;;;20.90;;
39102;SDS011;24847;48.218;16.414;2022-12-20T07:22:40;38.58;;;17.52;;
39102;SDS011;24847;48.218;16.414;2022-12-20T07:27:45;38.58;;;17.73;;
39102;SDS011;24847;48.218;16.414;2022-12-20T07:32:48;41.65;;;18.20;;
39102;SDS011;24847;48.218;16.414;2022-12-20T07:37:53;41.13;;;19.63;;
39102;SDS011;24847;48.218;16.414;2022-12-20T07:42:55;42.00;;;20.15;;
39102;SDS011;24847;48.218;16.414;2022-12-20T07:47:57;42.05;;;19.23;;
39102;SDS011;24847;48.218;16.414;2022-12-20T07:53:01;43.67;;;19.80;;
39102;SDS011;24847;48.218;16.414;2022-12-20T07:58:06;39.10;;;18.45;;
39102;SDS011;24847;48.218;16.414;2022-12-20T08:03:12;39.60;;;18.17;;
39102;SDS011;24847;48.218;16.414;2022-12-20T08:08:19;41.00;;;18.25;;
39102;SDS011;24847;48.218;16.414;2022-12-20T08:13:21;39.38;;;18.67;;
39102;SDS011;24847;48.218;16.414;2022-12-20T08:18:24;37.20;;;17.13;;
39102;SDS011;24847;48.218;16.414;2022-12-20T08:23:27;41.35;;;18.73;;
39102;SDS011;24847;48.218;16.414;2022-12-20T08:28:30;39.85;;;18.00;;
39102;SDS011;24847;48.218;16.414;2022-12-20T08:33:32;39.53;;;18.48;;
39102;SDS011;24847;48.218;16.414;2022-12-20T08:38:37;40.53;;;17.98;;
39102;SDS011;24847;48.218;16.414;2022-12-20T08:43:41;37.58;;;17.27;;
39102;SDS011;24847;48.218;16.414;2022-12-20T08:48:43;37.13;;;16.77;;
39102;SDS011;24847;48.218;16.414;2022-12-20T08:53:47;36.35;;;17.25;;
39102;SDS011;24847;48.218;16.414;2022-12-20T08:58:49;40.08;;;17.88;;
39102;SDS011;24847;48.218;16.414;2022-12-20T09:03:52;38.65;;;17.70;;
39102;SDS011;24847;48.218;16.414;2022-12-20T09:08:56;34.40;;;15.50;;
39102;SDS011;24847;48.218;16.414;2022-12-20T09:13:59;34.55;;;16.48;;
39102;SDS011;24847;48.218;16.414;2022-12-20T09:19:02;32.88;;;15.23;;
39102;SDS011;24847;48.218;16.414;2022-12-20T09:24:07;36.53;;;16.55;;
39102;SDS011;24847;48.218;16.414;2022-12-20T09:29:10;38.10;;;16.23;;
39102;SDS011;24847;48.218;16.414;2022-12-20T09:34:12;44.25;;;18.25;;
39102;SDS011;24847;48.218;16.414;2022-12-20T09:39:17;40.00;;;17.42;;
39102;SDS011;24847;48.218;16.414;2022-12-20T09:44:22;33.30;;;16.20;;
39102;SDS011;24847;48.218;16.414;2022-12-20T09:49:28;39.25;;;18.00;;
39102;SDS011;24847;48.218;16.414;2022-12-20T09:54:38;35.65;;;17.20;;
39102;SDS011;24847;48.218;16.414;2022-12-20T09:59:50;43.63;;;19.05;;
39102;SDS011;24847;48.218;16.414;2022-12-20T10:04:52;35.90;;;16.63;;
39102;SDS011;24847;48.218;16.414;2022-12-20T10:10:01;38.70;;;16.48;;
39102;SDS011;24847;48.218;16.414;2022-12-20T10:15:38;39.00;;;17.17;;
39102;SDS011;24847;48.218;16.414;2022-12-20T10:20:51;43.08;;;19.08;;
39102;SDS011;24847;48.218;16.414;2022-12-20T10:26:01;43.45;;;20.45;;
39102;SDS011;24847;48.218;16.414;2022-12-20T10:31:10;53.85;;;21.13;;
39102;SDS011;24847;48.218;16.414;2022-12-20T10:36:19;52.55;;;22.20;;
39102;SDS011;24847;48.218;16.414;2022-12-20T10:41:28;53.05;;;23.10;;
39102;SDS011;24847;48.218;16.414;2022-12-20T10:46:34;51.90;;;21.88;;
39102;SDS011;24847;48.218;16.414;2022-12-20T10:51:38;54.05;;;22.23;;
39102;SDS011;24847;48.218;16.414;2022-12-20T10:56:55;52.60;;;22.67;;
39102;SDS011;24847;48.218;16.414;2022-12-20T11:01:59;55.45;;;22.85;;
39102;SDS011;24847;48.218;16.414;2022-12-20T11:07:20;56.28;;;23.17;;
39102;SDS011;24847;48.218;16.414;2022-12-20T11:12:26;57.88;;;24.02;;
39102;SDS011;24847;48.218;16.414;2022-12-20T11:17:31;53.72;;;21.65;;
39102;SDS011;24847;48.218;16.414;2022-12-20T11:22:42;48.35;;;20.88;;
39102;SDS011;24847;48.218;16.414;2022-12-20T11:27:56;49.00;;;20.00;;
39102;SDS011;24847;48.218;16.414;2022-12-20T11:33:28;52.55;;;21.75;;
39102;SDS011;24847;48.218;16.414;2022-12-20T11:38:57;43.75;;;19.10;;
39102;SDS011;24847;48.218;16.414;2022-12-20T11:44:14;55.75;;;23.13;;
39102;SDS011;24847;48.218;16.414;2022-12-20T11:49:33;46.65;;;20.45;;
39102;SDS011;24847;48.218;16.414;2022-12-20T11:55:05;48.30;;;20.05;;
39102;SDS011;24847;48.218;16.414;2022-12-20T12:00:21;49.33;;;20.10;;
39102;SDS011;24847;48.218;16.414;2022-12-20T12:05:26;52.78;;;21.48;;
39102;SDS011;24847;48.218;16.414;2022-12-20T12:10:36;51.88;;;22.38;;
39102;SDS011;24847;48.218;16.414;2022-12-20T12:15:46;52.25;;;21.05;;
39102;SDS011;24847;48.218;16.414;2022-12-20T12:20:55;50.53;;;20.27;;
39102;SDS011;24847;48.218;16.414;2022-12-20T12:26:05;51.67;;;20.88;;
39102;SDS011;24847;48.218;16.414;2022-12-20T12:31:15;52.10;;;21.15;;
39102;SDS011;24847;48.218;16.414;2022-12-20T12:36:27;43.95;;;18.50;;
39102;SDS011;24847;48.218;16.414;2022-12-20T12:47:35;47.58;;;19.33;;
39102;SDS011;24847;48.218;16.414;2022-12-20T12:52:47;48.38;;;18.65;;
39102;SDS011;24847;48.218;16.414;2022-12-20T12:57:56;48.58;;;19.98;;
39102;SDS011;24847;48.218;16.414;2022-12-20T13:03:04;45.83;;;18.77;;
39102;SDS011;24847;48.218;16.414;2022-12-20T13:08:16;48.10;;;19.58;;
39102;SDS011;24847;48.218;16.414;2022-12-20T13:13:20;46.13;;;18.90;;
39102;SDS011;24847;48.218;16.414;2022-12-20T13:18:28;41.85;;;17.83;;
39102;SDS011;24847;48.218;16.414;2022-12-20T13:23:31;40.17;;;16.88;;
39102;SDS011;24847;48.218;16.414;2022-12-20T13:28:42;42.20;;;18.17;;
39102;SDS011;24847;48.218;16.414;2022-12-20T13:33:47;38.60;;;17.23;;
39102;SDS011;24847;48.218;16.414;2022-12-20T13:38:55;40.08;;;17.45;;
39102;SDS011;24847;48.218;16.414;2022-12-20T13:44:01;45.90;;;19.92;;
39102;SDS011;24847;48.218;16.414;2022-12-20T13:49:42;45.35;;;18.55;;
39102;SDS011;24847;48.218;16.414;2022-12-20T13:54:46;42.25;;;17.73;;
39102;SDS011;24847;48.218;16.414;2022-12-20T13:59:52;41.97;;;18.50;;
39102;SDS011;24847;48.218;16.414;2022-12-20T14:04:59;44.30;;;18.60;;
39102;SDS011;24847;48.218;16.414;2022-12-20T14:10:15;43.60;;;16.50;;
39102;SDS011;24847;48.218;16.414;2022-12-20T14:15:25;39.30;;;16.95;;
39102;SDS011;24847;48.218;16.414;2022-12-20T14:20:31;51.88;;;18.85;;
39102;SDS011;24847;48.218;16.414;2022-12-20T14:25:36;44.78;;;18.30;;
39102;SDS011;24847;48.218;16.414;2022-12-20T14:30:43;47.38;;;17.98;;
39102;SDS011;24847;48.218;16.414;2022-12-20T14:35:48;49.13;;;19.27;;
39102;SDS011;24847;48.218;16.414;2022-12-20T14:40:52;41.20;;;17.73;;
39102;SDS011;24847;48.218;16.414;2022-12-20T14:51:20;38.28;;;15.88;;
39102;SDS011;24847;48.218;16.414;2022-12-20T14:56:22;38.00;;;15.43;;
39102;SDS011;24847;48.218;16.414;2022-12-20T15:01:24;35.63;;;16.00;;
39102;SDS011;24847;48.218;16.414;2022-12-20T15:06:32;39.20;;;15.80;;
39102;SDS011;24847;48.218;16.414;2022-12-20T15:11:38;34.17;;;15.23;;
39102;SDS011;24847;48.218;16.414;2022-12-20T15:16:45;30.35;;;14.02;;
39102;SDS011;24847;48.218;16.414;2022-12-20T15:21:50;34.75;;;14.60;;
39102;SDS011;24847;48.218;16.414;2022-12-20T15:26:52;32.33;;;14.35;;
39102;SDS011;24847;48.218;16.414;2022-12-20T15:31:58;38.33;;;16.10;;
39102;SDS011;24847;48.218;16.414;2022-12-20T15:37:10;52.20;;;24.85;;
39102;SDS011;24847;48.218;16.414;2022-12-20T15:42:16;40.73;;;16.33;;
39102;SDS011;24847;48.218;16.414;2022-12-20T15:47:22;34.42;;;14.98;;
39102;SDS011;24847;48.218;16.414;2022-12-20T15:52:25;33.67;;;15.40;;
39102;SDS011;24847;48.218;16.414;2022-12-20T15:57:28;34.58;;;14.73;;
39102;SDS011;24847;48.218;16.414;2022-12-20T16:02:30;31.63;;;14.75;;
39102;SDS011;24847;48.218;16.414;2022-12-20T16:07:34;33.70;;;14.98;;
39102;SDS011;24847;48.218;16.414;2022-12-20T16:12:36;34.45;;;14.25;;
39102;SDS011;24847;48.218;16.414;2022-12-20T16:17:38;33.97;;;13.75;;
39102;SDS011;24847;48.218;16.414;2022-12-20T16:22:42;34.15;;;14.40;;
39102;SDS011;24847;48.218;16.414;2022-12-20T16:27:44;34.75;;;14.70;;
39102;SDS011;24847;48.218;16.414;2022-12-20T16:32:46;36.58;;;15.30;;
39102;SDS011;24847;48.218;16.414;2022-12-20T16:37:51;40.00;;;18.33;;
39102;SDS011;24847;48.218;16.414;2022-12-20T16:42:55;33.33;;;14.85;;
39102;SDS011;24847;48.218;16.414;2022-12-20T16:48:00;33.55;;;14.55;;
39102;SDS011;24847;48.218;16.414;2022-12-20T16:53:04;33.42;;;15.75;;
39102;SDS011;24847;48.218;16.414;2022-12-20T16:58:06;37.70;;;16.15;;
39102;SDS011;24847;48.218;16.414;2022-12-20T17:03:09;38.13;;;17.02;;
39102;SDS011;24847;48.218;16.414;2022-12-20T17:08:13;39.15;;;17.05;;
39102;SDS011;24847;48.218;16.414;2022-12-20T17:13:17;38.53;;;16.27;;
39102;SDS011;24847;48.218;16.414;2022-12-20T17:18:19;36.03;;;14.88;;
39102;SDS011;24847;48.218;16.414;2022-12-20T17:23:23;31.52;;;14.18;;
39102;SDS011;24847;48.218;16.414;2022-12-20T17:28:25;35.65;;;15.02;;
39102;SDS011;24847;48.218;16.414;2022-12-20T17:33:28;30.17;;;14.20;;
39102;SDS011;24847;48.218;16.414;2022-12-20T17:38:32;34.20;;;13.77;;
39102;SDS011;24847;48.218;16.414;2022-12-20T17:43:34;31.15;;;14.15;;
39102;SDS011;24847;48.218;16.414;2022-12-20T17:48:36;29.38;;;14.27;;
39102;SDS011;24847;48.218;16.414;2022-12-20T17:53:40;30.50;;;14.05;;
39102;SDS011;24847;48.218;16.414;2022-12-20T17:58:42;31.60;;;14.88;;
39102;SDS011;24847;48.218;16.414;2022-12-20T18:03:45;30.48;;;13.48;;
39102;SDS011;24847;48.218;16.414;2022-12-20T18:08:49;32.42;;;13.90;;
39102;SDS011;24847;48.218;16.414;2022-12-20T18:13:53;30.05;;;12.35;;
39102;SDS011;24847;48.218;16.414;2022-12-20T18:18:57;31.83;;;13.95;;
39102;SDS011;24847;48.218;16.414;2022-12-20T18:24:02;31.63;;;13.43;;
39102;SDS011;24847;48.218;16.414;2022-12-20T18:29:08;31.27;;;13.25;;
39102;SDS011;24847;48.218;16.414;2022-12-20T18:34:12;25.45;;;12.38;;
39102;SDS011;24847;48.218;16.414;2022-12-20T18:39:16;27.98;;;13.32;;
39102;SDS011;24847;48.218;16.414;2022-12-20T18:44:19;28.83;;;13.93;;
39102;SDS011;24847;48.218;16.414;2022-12-20T18:49:22;30.85;;;14.20;;
39102;SDS011;24847;48.218;16.414;2022-12-20T18:54:25;27.48;;;13.35;;
39102;SDS011;24847;48.218;16.414;2022-12-20T18:59:29;26.83;;;13.27;;
39102;SDS011;24847;48.218;16.414;2022-12-20T19:04:33;28.75;;;12.57;;
39102;SDS011;24847;48.218;16.414;2022-12-20T19:09:37;28.27;;;13.93;;
39102;SDS011;24847;48.218;16.414;2022-12-20T19:14:40;27.17;;;13.18;;
39102;SDS011;24847;48.218;16.414;2022-12-20T19:19:43;26.25;;;12.88;;
39102;SDS011;24847;48.218;16.414;2022-12-20T19:24:48;24.88;;;12.18;;
39102;SDS011;24847;48.218;16.414;2022-12-20T19:29:52;26.58;;;12.85;;
39102;SDS011;24847;48.218;16.414;2022-12-20T19:34:55;25.17;;;13.15;;
39102;SDS011;24847;48.218;16.414;2022-12-20T19:39:59;25.35;;;11.88;;
39102;SDS011;24847;48.218;16.414;2022-12-20T19:45:02;20.95;;;11.00;;
39102;SDS011;24847;48.218;16.414;2022-12-20T19:50:06;18.85;;;10.35;;
39102;SDS011;24847;48.218;16.414;2022-12-20T19:55:10;24.48;;;10.70;;
39102;SDS011;24847;48.218;16.414;2022-12-20T20:00:13;25.23;;;12.13;;
39102;SDS011;24847;48.218;16.414;2022-12-20T20:05:16;24.40;;;12.15;;
39102;SDS011;24847;48.218;16.414;2022-12-20T20:10:20;20.92;;;10.68;;
39102;SDS011;24847;48.218;16.414;2022-12-20T20:15:26;22.45;;;11.45;;
39102;SDS011;24847;48.218;16.414;2022-12-20T20:20:29;20.25;;;10.32;;
39102;SDS011;24847;48.218;16.414;2022-12-20T20:25:35;19.10;;;10.32;;
39102;SDS011;24847;48.218;16.414;2022-12-20T20:30:38;20.65;;;10.93;;
39102;SDS011;24847;48.218;16.414;2022-12-20T20:35:41;21.27;;;10.90;;
39102;SDS011;24847;48.218;16.414;2022-12-20T20:40:46;17.27;;;9.43;;
39102;SDS011;24847;48.218;16.414;2022-12-20T20:45:49;20.70;;;11.32;;
39102;SDS011;24847;48.218;16.414;2022-12-20T20:50:51;24.15;;;11.48;;
39102;SDS011;24847;48.218;16.414;2022-12-20T20:55:57;19.65;;;10.00;;
39102;SDS011;24847;48.218;16.414;2022-12-20T21:01:01;21.58;;;10.77;;
39102;SDS011;24847;48.218;16.414;2022-12-20T21:06:07;18.88;;;10.23;;
39102;SDS011;24847;48.218;16.414;2022-12-20T21:11:11;20.83;;;10.35;;
39102;SDS011;24847;48.218;16.414;2022-12-20T21:16:14;19.20;;;9.88;;
39102;SDS011;24847;48.218;16.414;2022-12-20T21:21:19;17.33;;;9.43;;
39102;SDS011;24847;48.218;16.414;2022-12-20T21:26:24;19.50;;;11.10;;
39102;SDS011;24847;48.218;16.414;2022-12-20T21:31:27;19.05;;;10.25;;
39102;SDS011;24847;48.218;16.414;2022-12-20T21:36:29;21.25;;;10.55;;
39102;SDS011;24847;48.218;16.414;2022-12-20T21:41:33;18.27;;;9.50;;
39102;SDS011;24847;48.218;16.414;2022-12-20T21:46:35;16.80;;;9.43;;
39102;SDS011;24847;48.218;16.414;2022-12-20T21:51:38;18.30;;;9.85;;
39102;SDS011;24847;48.218;16.414;2022-12-20T21:56:42;17.35;;;9.60;;
39102;SDS011;24847;48.218;16.414;2022-12-20T22:01:44;20.55;;;10.10;;
39102;SDS011;24847;48.218;16.414;2022-12-20T22:06:46;17.10;;;9.75;;
39102;SDS011;24847;48.218;16.414;2022-12-20T22:11:50;18.38;;;10.18;;
39102;SDS011;24847;48.218;16.414;2022-12-20T22:16:52;17.75;;;9.80;;
39102;SDS011;24847;48.218;16.414;2022-12-20T22:21:54;21.08;;;10.75;;
39102;SDS011;24847;48.218;16.414;2022-12-20T22:26:58;16.90;;;9.15;;
39102;SDS011;24847;48.218;16.414;2022-12-20T22:32:00;21.80;;;11.30;;
39102;SDS011;24847;48.218;16.414;2022-12-20T22:37:03;23.60;;;12.38;;
39102;SDS011;24847;48.218;16.414;2022-12-20T22:42:07;26.02;;;13.60;;
39102;SDS011;24847;48.218;16.414;2022-12-20T22:47:09;25.00;;;12.68;;
39102;SDS011;24847;48.218;16.414;2022-12-20T22:52:11;24.92;;;13.75;;
39102;SDS011;24847;48.218;16.414;2022-12-20T22:57:15;25.27;;;13.50;;
39102;SDS011;24847;48.218;16.414;2022-12-20T23:02:17;23.83;;;11.80;;
39102;SDS011;24847;48.218;16.414;2022-12-20T23:07:20;19.48;;;11.25;;
39102;SDS011;24847;48.218;16.414;2022-12-20T23:12:23;19.13;;;10.90;;
39102;SDS011;24847;48.218;16.414;2022-12-20T23:17:43;18.80;;;10.63;;
39102;SDS011;24847;48.218;16.414;2022-12-20T23:22:46;19.30;;;10.20;;
39102;SDS011;24847;48.218;16.414;2022-12-20T23:27:50;22.05;;;11.43;;
39102;SDS011;24847;48.218;16.414;2022-12-20T23:32:52;20.95;;;11.85;;
39102;SDS011;24847;48.218;16.414;2022-12-20T23:37:55;22.23;;;12.15;;
39102;SDS011;24847;48.218;16.414;2022-12-20T23:42:59;25.00;;;13.05;;
39102;SDS011;24847;48.218;16.414;2022-12-20T23:48:01;21.60;;;11.48;;
39102;SDS011;24847;48.218;16.414;2022-12-20T23:53:04;19.38;;;10.52;;
39102;SDS011;24847;48.218;16.414;2022-12-20T23:58:07;22.08;;;11.68;;
